createdAt,value
2019-03-05T00:01:43.669Z,98897.63
2019-03-05T00:04:13.821Z,98896.30
2019-03-05T00:06:43.236Z,98893.25
2019-03-05T00:09:14.680Z,98902.89
2019-03-05T00:11:44.131Z,98905.95
2019-03-05T00:14:13.556Z,98908.14
2019-03-05T00:16:43.011Z,98915.60
2019-03-05T00:19:12.485Z,98924.80
2019-03-05T00:21:41.901Z,98926.09
2019-03-05T00:24:49.369Z,98929.58
2019-03-05T00:27:18.780Z,98929.55
2019-03-05T00:29:53.790Z,98923.38
2019-03-05T00:32:23.246Z,98920.73
2019-03-05T00:35:04.761Z,98920.28
2019-03-05T00:37:37.326Z,98926.39
2019-03-05T00:40:12.880Z,98912.33
2019-03-05T00:43:00.582Z,98907.95
2019-03-05T00:45:51.287Z,98912.32
2019-03-05T00:48:39.917Z,98911.87
2019-03-05T00:51:25.014Z,98906.61
2019-03-05T00:54:00.831Z,98925.05
2019-03-05T00:56:51.617Z,98906.62
2019-03-05T00:59:57.573Z,98907.02
2019-03-05T01:02:52.136Z,98916.67
2019-03-05T01:05:30.140Z,98925.45
2019-03-05T01:07:59.608Z,98922.84
2019-03-05T01:10:29.137Z,98925.47
2019-03-05T01:12:58.791Z,98932.51
2019-03-05T01:15:28.448Z,98937.37
2019-03-05T01:17:57.912Z,98936.47
2019-03-05T01:20:27.410Z,98944.38
2019-03-05T01:22:57.300Z,98933.83
2019-03-05T01:25:29.523Z,98957.10
2019-03-05T01:27:58.960Z,98956.69
2019-03-05T01:30:33.111Z,98959.78
2019-03-05T01:33:10.173Z,98959.39
2019-03-05T01:35:41.404Z,98958.52
2019-03-05T01:38:10.884Z,98969.09
2019-03-05T01:40:40.674Z,98973.91
2019-03-05T01:43:10.095Z,98961.20
2019-03-05T01:45:39.555Z,98963.84
2019-03-05T01:48:08.961Z,98973.00
2019-03-05T01:50:38.475Z,98980.88
2019-03-05T01:53:07.963Z,98982.17
2019-03-05T01:55:37.488Z,98984.77
2019-03-05T01:58:06.969Z,98996.16
2019-03-05T02:00:37.691Z,98994.85
2019-03-05T02:03:07.202Z,99001.88
2019-03-05T02:05:36.804Z,98995.73
2019-03-05T02:08:06.287Z,99000.53
2019-03-05T02:10:35.798Z,98996.59
2019-03-05T02:13:05.318Z,98987.37
2019-03-05T02:15:34.798Z,98998.73
2019-03-05T02:18:04.425Z,98994.76
2019-03-05T02:20:33.842Z,98999.58
2019-03-05T02:23:09.938Z,98992.55
2019-03-05T02:25:45.161Z,99012.67
2019-03-05T02:28:26.711Z,99005.22
2019-03-05T02:31:14.292Z,99007.38
2019-03-05T02:33:46.819Z,98995.11
2019-03-05T02:36:37.695Z,98995.11
2019-03-05T02:39:32.893Z,98992.48
2019-03-05T02:42:17.325Z,99012.20
2019-03-05T02:44:56.659Z,99009.08
2019-03-05T02:47:51.908Z,99002.50
2019-03-05T02:50:50.266Z,99004.66
2019-03-05T02:53:39.591Z,99016.41
2019-03-05T02:56:28.679Z,99009.39
2019-03-05T02:58:56.996Z,99016.42
2019-03-05T03:01:44.724Z,99017.78
2019-03-05T03:04:15.784Z,99005.98
2019-03-05T03:06:45.277Z,99013.38
2019-03-05T03:09:32.972Z,99021.72
2019-03-05T03:12:02.414Z,99023.92
2019-03-05T03:14:31.867Z,99021.30
2019-03-05T03:17:01.297Z,99031.38
2019-03-05T03:19:31.909Z,99023.08
2019-03-05T03:22:01.304Z,99032.69
2019-03-05T03:24:30.839Z,99033.12
2019-03-05T03:27:00.295Z,99030.07
2019-03-05T03:29:29.765Z,99030.53
2019-03-05T03:31:59.405Z,99030.54
2019-03-05T03:34:28.869Z,99038.41
2019-03-05T03:36:58.325Z,99023.55
2019-03-05T03:39:27.766Z,99035.84
2019-03-05T03:41:57.241Z,99037.58
2019-03-05T03:44:26.791Z,99038.89
2019-03-05T03:46:56.239Z,99044.18
2019-03-05T03:49:25.757Z,99054.69
2019-03-05T03:51:55.231Z,99052.95
2019-03-05T03:54:24.677Z,99057.73
2019-03-05T03:56:54.123Z,99063.00
2019-03-05T03:59:23.589Z,99059.52
2019-03-05T04:01:53.347Z,99074.38
2019-03-05T04:04:22.841Z,99075.27
2019-03-05T04:06:52.373Z,99081.42
2019-03-05T04:09:21.814Z,99087.60
2019-03-05T04:11:51.278Z,99094.59
2019-03-05T04:14:20.688Z,99086.30
2019-03-05T04:16:50.348Z,99092.45
2019-03-05T04:19:22.408Z,99098.16
2019-03-05T04:21:51.867Z,99092.95
2019-03-05T04:24:21.284Z,99094.69
2019-03-05T04:26:50.744Z,99096.89
2019-03-05T04:29:20.214Z,99089.47
2019-03-05T04:31:49.674Z,99095.19
2019-03-05T04:34:19.225Z,99097.36
2019-03-05T04:36:48.670Z,99102.19
2019-03-05T04:39:18.091Z,99105.23
2019-03-05T04:41:47.626Z,99099.52
2019-03-05T04:44:18.688Z,99107.36
2019-03-05T04:46:49.726Z,99106.93
2019-03-05T04:49:26.835Z,99114.39
2019-03-05T04:51:58.053Z,99112.23
2019-03-05T04:54:27.575Z,99102.19
2019-03-05T04:56:57.001Z,99112.28
2019-03-05T04:59:26.460Z,99110.11
2019-03-05T05:01:55.911Z,99119.34
2019-03-05T05:04:25.341Z,99119.77
2019-03-05T05:06:54.794Z,99120.23
2019-03-05T05:09:24.216Z,99125.09
2019-03-05T05:11:53.686Z,99116.34
2019-03-05T05:14:23.113Z,99124.23
2019-03-05T05:16:52.574Z,99131.27
2019-03-05T05:19:21.989Z,99131.69
2019-03-05T05:21:51.441Z,99136.52
2019-03-05T05:24:20.866Z,99142.21
2019-03-05T05:26:50.334Z,99141.36
2019-03-05T05:29:20.078Z,99140.04
2019-03-05T05:31:49.535Z,99147.50
2019-03-05T05:34:20.102Z,99147.05
2019-03-05T05:36:49.684Z,99151.88
2019-03-05T05:39:55.699Z,99151.02
2019-03-05T05:42:25.166Z,99160.22
2019-03-05T05:44:54.653Z,99157.59
2019-03-05T05:47:24.122Z,99166.38
2019-03-05T05:49:54.437Z,99172.05
2019-03-05T05:52:23.919Z,99170.74
2019-03-05T05:54:53.380Z,99171.17
2019-03-05T05:57:23.907Z,99166.34
2019-03-05T05:59:53.331Z,99176.40
2019-03-05T06:02:22.799Z,99161.51
2019-03-05T06:04:52.230Z,99180.34
2019-03-05T06:07:21.648Z,99181.66
2019-03-05T06:09:51.120Z,99174.20
2019-03-05T06:12:20.557Z,99197.83
2019-03-05T06:14:49.985Z,99189.47
2019-03-05T06:17:20.278Z,99191.20
2019-03-05T06:19:49.735Z,99189.42
2019-03-05T06:22:19.188Z,99196.84
2019-03-05T06:24:48.610Z,99194.21
2019-03-05T06:27:18.213Z,99196.84
2019-03-05T06:29:47.632Z,99214.40
2019-03-05T06:32:17.559Z,99220.59
2019-03-05T06:34:47.190Z,99218.86
2019-03-05T06:37:16.610Z,99228.56
2019-03-05T06:39:46.067Z,99224.16
2019-03-05T06:42:15.495Z,99232.94
2019-03-05T06:44:45.455Z,99241.25
2019-03-05T06:47:14.891Z,99243.88
2019-03-05T06:49:44.381Z,99244.81
2019-03-05T06:52:13.929Z,99248.30
2019-03-05T06:54:43.356Z,99254.02
2019-03-05T06:57:12.913Z,99266.27
2019-03-05T06:59:42.361Z,99253.98
2019-03-05T07:02:11.782Z,99272.85
2019-03-05T07:04:42.884Z,99266.75
2019-03-05T07:07:12.380Z,99272.94
2019-03-05T07:09:48.087Z,99279.55
2019-03-05T07:12:35.382Z,99277.81
2019-03-05T07:15:22.657Z,99288.38
2019-03-05T07:18:20.183Z,99287.95
2019-03-05T07:20:55.205Z,99291.89
2019-03-05T07:23:40.000Z,99305.09
2019-03-05T07:26:09.508Z,99308.18
2019-03-05T07:28:38.947Z,99316.07
2019-03-05T07:31:08.419Z,99314.39
2019-03-05T07:33:37.907Z,99314.41
2019-03-05T07:36:07.423Z,99317.91
2019-03-05T07:38:36.874Z,99317.88
2019-03-05T07:41:06.407Z,99318.31
2019-03-05T07:43:36.700Z,99327.06
2019-03-05T07:46:06.264Z,99333.28
2019-03-05T07:48:35.708Z,99333.80
2019-03-05T07:51:05.166Z,99333.38
2019-03-05T07:53:34.843Z,99343.48
2019-03-05T07:56:04.437Z,99344.36
2019-03-05T07:58:33.895Z,99350.52
2019-03-05T08:01:04.847Z,99347.01
2019-03-05T08:03:34.380Z,99346.55
2019-03-05T08:06:04.559Z,99357.12
2019-03-05T08:09:10.810Z,99346.59
2019-03-05T08:11:40.234Z,99333.83
2019-03-05T08:14:39.802Z,99346.57
2019-03-05T08:17:09.227Z,99347.45
2019-03-05T08:19:38.696Z,99345.70
2019-03-05T08:22:09.099Z,99343.05
2019-03-05T08:24:38.619Z,99349.66
2019-03-05T08:27:08.052Z,99340.85
2019-03-05T08:29:37.539Z,99355.34
2019-03-05T08:32:07.000Z,99355.78
2019-03-05T08:34:36.413Z,99360.17
2019-03-05T08:37:05.942Z,99350.40
2019-03-05T08:39:35.372Z,99360.47
2019-03-05T08:42:05.655Z,99358.22
2019-03-05T08:44:36.829Z,99362.98
2019-03-05T08:47:06.307Z,99373.45
2019-03-05T08:49:35.875Z,99372.83
2019-03-05T08:52:05.571Z,99383.70
2019-03-05T08:54:35.026Z,99376.07
2019-03-05T08:57:04.762Z,99383.65
2019-03-05T08:59:34.185Z,99386.02
2019-03-05T09:02:04.556Z,99386.66
2019-03-05T09:04:34.104Z,99397.77
2019-03-05T09:07:04.627Z,99400.02
2019-03-05T09:09:34.081Z,99394.34
2019-03-05T09:12:04.837Z,99402.78
2019-03-05T09:14:34.744Z,99418.22
2019-03-05T09:17:05.063Z,99423.49
2019-03-05T09:19:34.716Z,99422.16
2019-03-05T09:22:04.568Z,99433.95
2019-03-05T09:24:34.200Z,99432.89
2019-03-05T09:27:04.511Z,99414.45
2019-03-05T09:29:38.474Z,99418.83
2019-03-05T09:32:07.723Z,99423.31
2019-03-05T09:34:37.346Z,99418.88
2019-03-05T09:37:07.917Z,99412.28
2019-03-05T09:39:39.725Z,99414.98
2019-03-05T09:42:09.237Z,99411.06
2019-03-05T09:44:38.793Z,99412.84
2019-03-05T09:47:08.351Z,99416.36
2019-03-05T09:49:39.796Z,99419.91
2019-03-05T09:52:09.255Z,99409.84
2019-03-05T09:54:38.702Z,99421.73
2019-03-05T09:57:08.118Z,99412.08
2019-03-05T09:59:37.582Z,99412.92
2019-03-05T10:02:07.005Z,99421.72
2019-03-05T10:04:36.450Z,99400.16
2019-03-05T10:07:06.145Z,99417.34
2019-03-05T10:09:35.682Z,99405.90
2019-03-05T10:12:05.523Z,99411.57
2019-03-05T10:14:34.976Z,99418.17
2019-03-05T10:17:04.593Z,99415.97
2019-03-05T10:19:34.124Z,99428.30
2019-03-05T10:22:04.670Z,99422.63
2019-03-05T10:24:34.149Z,99439.31
2019-03-05T10:27:04.549Z,99428.76
2019-03-05T10:29:34.643Z,99426.97
2019-03-05T10:32:05.208Z,99423.41
2019-03-05T10:34:34.693Z,99426.00
2019-03-05T10:37:12.313Z,99438.27
2019-03-05T10:39:36.219Z,99425.11
2019-03-05T10:42:05.789Z,99442.73
2019-03-05T10:44:35.478Z,99432.20
2019-03-05T10:47:05.083Z,99442.31
2019-03-05T10:49:34.495Z,99439.69
2019-03-05T10:52:04.447Z,99448.47
2019-03-05T10:54:33.976Z,99449.74
2019-03-05T10:57:04.727Z,99445.74
2019-03-05T10:59:34.388Z,99450.59
2019-03-05T11:02:04.832Z,99452.33
2019-03-05T11:04:45.248Z,99444.04
2019-03-05T11:07:05.555Z,99459.02
2019-03-05T11:09:35.027Z,99450.21
2019-03-05T11:12:05.855Z,99455.89
2019-03-05T11:14:35.460Z,99457.17
2019-03-05T11:17:05.004Z,99459.33
2019-03-05T11:19:34.602Z,99464.17
2019-03-05T11:22:04.688Z,99461.52
2019-03-05T11:24:34.224Z,99458.89
2019-03-05T11:27:04.430Z,99459.71
2019-03-05T11:29:33.922Z,99456.95
2019-03-05T11:32:04.443Z,99465.39
2019-03-05T11:34:33.953Z,99468.54
2019-03-05T11:37:04.350Z,99448.73
2019-03-05T11:39:33.808Z,99450.89
2019-03-05T11:42:03.441Z,99459.26
2019-03-05T11:44:32.942Z,99462.00
2019-03-05T11:47:02.426Z,99456.25
2019-03-05T11:49:31.899Z,99463.70
2019-03-05T11:52:01.379Z,99467.66
2019-03-05T11:54:31.792Z,99473.77
2019-03-05T11:57:01.665Z,99484.39
2019-03-05T11:59:31.289Z,99486.63
2019-03-05T12:02:00.803Z,99499.41
2019-03-05T12:04:30.265Z,99497.11
2019-03-05T12:06:59.734Z,99497.06
2019-03-05T12:09:29.190Z,99491.41
2019-03-05T12:11:58.613Z,99507.33
2019-03-05T12:14:28.092Z,99502.08
2019-03-05T12:16:57.594Z,99506.08
2019-03-05T12:19:27.019Z,99509.22
2019-03-05T12:21:56.561Z,99507.91
2019-03-05T12:24:25.984Z,99519.36
2019-03-05T12:26:55.472Z,99522.83
2019-03-05T12:29:24.898Z,99510.84
2019-03-05T12:31:55.543Z,99518.30
2019-03-05T12:34:24.993Z,99523.52
2019-03-05T12:36:54.449Z,99515.64
2019-03-05T12:39:23.890Z,99512.05
2019-03-05T12:41:53.401Z,99512.06
2019-03-05T12:44:22.834Z,99504.13
2019-03-05T12:46:52.317Z,99514.19
2019-03-05T12:49:21.773Z,99518.58
2019-03-05T12:51:51.275Z,99520.34
2019-03-05T12:54:20.808Z,99522.60
2019-03-05T12:56:50.265Z,99532.28
2019-03-05T12:59:19.746Z,99527.47
2019-03-05T13:01:49.166Z,99527.11
2019-03-05T13:04:18.600Z,99527.16
2019-03-05T13:06:48.071Z,99539.50
2019-03-05T13:09:19.551Z,99543.92
2019-03-05T13:11:49.884Z,99547.86
2019-03-05T13:14:20.341Z,99550.50
2019-03-05T13:16:49.848Z,99550.50
2019-03-05T13:19:19.312Z,99552.71
2019-03-05T13:21:50.237Z,99552.69
2019-03-05T13:24:20.745Z,99585.31
2019-03-05T13:26:50.169Z,99551.80
2019-03-05T13:29:20.666Z,99557.89
2019-03-05T13:31:51.129Z,99560.45
2019-03-05T13:34:20.595Z,99568.81
2019-03-05T13:36:50.727Z,99573.62
2019-03-05T13:39:22.437Z,99582.80
2019-03-05T13:41:53.921Z,99566.81
2019-03-05T13:44:34.094Z,99589.23
2019-03-05T13:47:05.754Z,99583.13
2019-03-05T13:49:56.779Z,99586.30
2019-03-05T13:52:39.320Z,99589.03
2019-03-05T13:55:17.571Z,99604.98
2019-03-05T13:57:58.729Z,99593.94
2019-03-05T14:00:28.290Z,99591.16
2019-03-05T14:03:09.460Z,99596.42
2019-03-05T14:05:41.966Z,99605.81
2019-03-05T14:08:29.462Z,99609.37
2019-03-05T14:10:59.140Z,99616.44
2019-03-05T14:13:28.701Z,99612.45
2019-03-05T14:15:58.496Z,99612.97
2019-03-05T14:18:27.995Z,99617.39
2019-03-05T14:20:57.475Z,99616.08
2019-03-05T14:23:26.925Z,99626.69
2019-03-05T14:25:56.369Z,99624.98
2019-03-05T14:28:27.614Z,99632.05
2019-03-05T14:30:57.055Z,99640.89
2019-03-05T14:33:26.548Z,99642.67
2019-03-05T14:35:55.979Z,99644.41
2019-03-05T14:38:25.437Z,99648.80
2019-03-05T14:40:56.655Z,99658.91
2019-03-05T14:43:26.271Z,99654.08
2019-03-05T14:45:55.873Z,99645.69
2019-03-05T14:48:25.830Z,99654.52
2019-03-05T14:50:55.317Z,99658.45
2019-03-05T14:53:24.828Z,99665.08
2019-03-05T14:55:54.624Z,99677.36
2019-03-05T14:58:24.255Z,99674.30
2019-03-05T15:00:55.142Z,99681.77
2019-03-05T15:03:24.826Z,99672.98
2019-03-05T15:05:54.281Z,99672.97
2019-03-05T15:08:23.699Z,99676.95
2019-03-05T15:10:53.184Z,99687.48
2019-03-05T15:13:22.597Z,99680.89
2019-03-05T15:15:52.073Z,99680.86
2019-03-05T15:18:21.549Z,99690.53
2019-03-05T15:20:51.013Z,99687.00
2019-03-05T15:23:20.972Z,99688.34
2019-03-05T15:25:50.408Z,99688.34
2019-03-05T15:28:19.888Z,99698.05
2019-03-05T15:30:49.319Z,99694.97
2019-03-05T15:33:18.744Z,99696.74
2019-03-05T15:35:48.423Z,99696.30
2019-03-05T15:38:17.835Z,99702.49
2019-03-05T15:40:47.470Z,99694.56
2019-03-05T15:43:16.940Z,99707.34
2019-03-05T15:45:46.503Z,99707.32
2019-03-05T15:48:16.064Z,99710.40
2019-03-05T15:51:04.904Z,99709.06
2019-03-05T15:53:34.394Z,99709.06
2019-03-05T15:56:04.450Z,99716.95
2019-03-05T15:58:33.915Z,99721.78
2019-03-05T16:01:04.350Z,99725.28
2019-03-05T16:03:34.114Z,99762.20
2019-03-05T16:09:40.877Z,99767.66
2019-03-05T16:18:39.110Z,99767.08
2019-03-05T16:21:07.157Z,99775.47
2019-03-05T16:23:36.668Z,99782.95
2019-03-05T16:26:08.885Z,99782.77
2019-03-05T16:28:39.340Z,99776.00
2019-03-05T16:31:12.555Z,99774.17
2019-03-05T16:33:47.352Z,99771.94
2019-03-05T16:36:18.481Z,99773.27
2019-03-05T16:38:55.139Z,99782.97
2019-03-05T16:41:41.616Z,99778.63
2019-03-05T16:44:18.397Z,99787.02
2019-03-05T16:46:58.346Z,99786.64
2019-03-05T16:49:41.448Z,99787.53
2019-03-05T16:52:15.657Z,99798.95
2019-03-05T16:55:02.889Z,99798.86
2019-03-05T16:57:35.092Z,99792.16
2019-03-05T17:00:27.168Z,99806.98
2019-03-05T17:02:58.516Z,99806.03
2019-03-05T17:05:35.932Z,99810.27
2019-03-05T17:08:09.948Z,99813.65
2019-03-05T17:10:47.173Z,99826.75
2019-03-05T17:13:16.681Z,99831.52
2019-03-05T17:15:46.174Z,99831.42
2019-03-05T17:18:16.293Z,99837.07
2019-03-05T17:20:45.767Z,99845.83
2019-03-05T17:23:15.397Z,99856.33
2019-03-05T17:25:45.025Z,99861.10
2019-03-05T17:28:14.855Z,99858.00
2019-03-05T17:30:44.892Z,99863.24
2019-03-05T17:33:15.681Z,99863.21
2019-03-05T17:35:45.504Z,99876.34
2019-03-05T17:38:15.649Z,99873.24
2019-03-05T17:40:45.554Z,99883.34
2019-03-05T17:43:15.604Z,99892.97
2019-03-05T17:45:45.688Z,99898.66
2019-03-05T17:48:15.229Z,99906.08
2019-03-05T17:50:44.788Z,99910.02
2019-03-05T17:53:14.684Z,99917.11
2019-03-05T17:55:44.510Z,99919.41
2019-03-05T17:58:13.986Z,99919.55
2019-03-05T18:00:45.763Z,99922.25
2019-03-05T18:03:15.228Z,99923.95
2019-03-05T18:05:44.717Z,99925.17
2019-03-05T18:08:14.320Z,99929.93
2019-03-05T18:10:43.902Z,99934.24
2019-03-05T18:13:14.523Z,99939.88
2019-03-05T18:15:44.149Z,99947.73
2019-03-05T18:18:13.707Z,99950.75
2019-03-05T18:20:43.315Z,99954.63
2019-03-05T18:23:12.784Z,99952.83
2019-03-05T18:25:42.389Z,99956.25
2019-03-05T18:28:12.607Z,99954.44
2019-03-05T18:30:42.416Z,99953.47
2019-03-05T18:33:11.886Z,99964.36
2019-03-05T18:35:41.307Z,99968.68
2019-03-05T18:38:10.779Z,99969.48
2019-03-05T18:40:40.453Z,99973.38
2019-03-05T18:43:09.927Z,99976.00
2019-03-05T18:45:40.317Z,99978.55
2019-03-05T18:48:09.852Z,99989.04
2019-03-05T18:50:39.459Z,99989.00
2019-03-05T18:53:09.031Z,99987.18
2019-03-05T18:55:38.655Z,99988.89
2019-03-05T18:58:08.082Z,99993.70
2019-03-05T19:00:37.768Z,99994.52
2019-03-05T19:03:12.652Z,100002.80
2019-03-05T19:05:42.208Z,100003.70
2019-03-05T19:08:11.861Z,100008.55
2019-03-05T19:10:41.464Z,100008.68
2019-03-05T19:13:10.895Z,100013.59
2019-03-05T19:15:40.378Z,100010.98
2019-03-05T19:18:09.944Z,100014.43
2019-03-05T19:20:39.975Z,100021.88
2019-03-05T19:23:09.844Z,100031.86
2019-03-05T19:25:41.149Z,100031.81
2019-03-05T19:28:11.562Z,100031.77
2019-03-05T19:30:44.180Z,100032.55
2019-03-05T19:33:13.781Z,100039.51
2019-03-05T19:35:43.334Z,100036.38
2019-03-05T19:38:17.391Z,100042.88
2019-03-05T19:40:48.432Z,100040.16
2019-03-05T19:43:17.878Z,100041.90
2019-03-05T19:45:47.333Z,100047.06
2019-03-05T19:48:17.031Z,100044.39
2019-03-05T19:50:47.729Z,100052.66
2019-03-05T19:53:18.239Z,100050.37
2019-03-05T19:55:47.771Z,100055.62
2019-03-05T19:58:17.296Z,100056.91
2019-03-05T20:01:02.210Z,100059.95
2019-03-05T20:03:31.976Z,100059.92
2019-03-05T20:06:01.530Z,100066.47
2019-03-05T20:08:39.379Z,100065.06
2019-03-05T20:11:02.297Z,100063.30
2019-03-05T20:13:31.916Z,100067.63
2019-03-05T20:16:01.469Z,100072.41
2019-03-05T20:18:30.907Z,100064.52
2019-03-05T20:21:00.837Z,100070.23
2019-03-05T20:23:32.023Z,100074.53
2019-03-05T20:26:01.569Z,100074.86
2019-03-05T20:28:31.121Z,100084.34
2019-03-05T20:31:02.034Z,100088.67
2019-03-05T20:33:31.745Z,100087.30
2019-03-05T20:36:01.280Z,100088.97
2019-03-05T20:38:31.024Z,100088.94
2019-03-05T20:41:00.697Z,100095.44
2019-03-05T20:43:30.263Z,100093.64
2019-03-05T20:46:06.406Z,100099.82
2019-03-05T20:48:36.044Z,100099.31
2019-03-05T20:51:07.042Z,100107.16
2019-03-05T20:53:36.498Z,100108.47
2019-03-05T20:56:07.322Z,100111.98
2019-03-05T20:58:36.864Z,100112.41
2019-03-05T21:01:08.113Z,100117.23
2019-03-05T21:03:37.704Z,100120.28
2019-03-05T21:06:07.318Z,100116.69
2019-03-05T21:08:37.158Z,100127.61
2019-03-05T21:11:09.982Z,100132.41
2019-03-05T21:13:39.489Z,100135.48
2019-03-05T21:16:09.194Z,100145.53
2019-03-05T21:18:38.616Z,100142.52
2019-03-05T21:21:08.230Z,100152.64
2019-03-05T21:23:38.141Z,100156.19
2019-03-05T21:26:07.679Z,100155.33
2019-03-05T21:28:37.106Z,100155.33
2019-03-05T21:31:06.830Z,100159.65
2019-03-05T21:33:36.286Z,100156.95
2019-03-05T21:36:05.905Z,100158.59
2019-03-05T21:38:35.328Z,100161.94
2019-03-05T21:41:04.804Z,100160.56
2019-03-05T21:43:35.086Z,100164.02
2019-03-05T21:46:13.575Z,100165.27
2019-03-05T21:48:43.029Z,100167.78
2019-03-05T21:51:12.629Z,100170.34
2019-03-05T21:53:42.427Z,100176.91
2019-03-05T21:56:11.970Z,100175.59
2019-03-05T21:58:41.904Z,100181.32
2019-03-05T22:01:11.522Z,100179.53
2019-03-05T22:03:40.963Z,100186.12
2019-03-05T22:06:10.439Z,100181.84
2019-03-05T22:08:39.869Z,100179.31
2019-03-05T22:11:10.501Z,100177.07
2019-03-05T22:13:40.105Z,100170.52
2019-03-05T22:16:09.571Z,100180.18
2019-03-05T22:18:39.057Z,100185.91
2019-03-05T22:21:09.165Z,100182.00
2019-03-05T22:23:39.020Z,100185.94
2019-03-05T22:26:08.498Z,100192.95
2019-03-05T22:28:38.280Z,100193.91
2019-03-05T22:31:07.782Z,100200.44
2019-03-05T22:33:37.210Z,100204.31
2019-03-05T22:36:06.894Z,100199.06
2019-03-05T22:38:37.311Z,100189.02
2019-03-05T22:41:07.813Z,100203.03
2019-03-05T22:43:37.463Z,100206.94
2019-03-05T22:46:06.965Z,100203.89
2019-03-05T22:48:36.429Z,100202.58
2019-03-05T22:51:05.858Z,100201.62
2019-03-05T22:53:35.355Z,100198.48
2019-03-05T22:56:04.946Z,100207.73
2019-03-05T22:58:34.407Z,100205.07
2019-03-05T23:01:06.169Z,100204.14
2019-03-05T23:03:38.447Z,100204.62
2019-03-05T23:06:11.082Z,100212.53
2019-03-05T23:08:40.707Z,100209.87
2019-03-05T23:11:10.408Z,100207.25
2019-03-05T23:13:40.143Z,100213.32
2019-03-05T23:16:09.911Z,100211.53
2019-03-05T23:18:39.527Z,100212.45
2019-03-05T23:21:09.606Z,100212.45
2019-03-05T23:23:39.880Z,100219.02
2019-03-05T23:26:09.619Z,100213.22
2019-03-05T23:28:39.233Z,100217.98
2019-03-05T23:31:11.377Z,100214.91
2019-03-05T23:33:40.971Z,100225.44
2019-03-05T23:36:10.515Z,100225.51
2019-03-05T23:38:40.046Z,100222.06
2019-03-05T23:41:09.501Z,100232.52
2019-03-05T23:43:38.935Z,100227.61
2019-03-05T23:46:08.484Z,100223.20
2019-03-05T23:48:38.010Z,100233.66
2019-03-05T23:51:07.487Z,100224.40
2019-03-05T23:53:37.024Z,100229.61
2019-03-05T23:56:06.471Z,100227.41
2019-03-05T23:58:35.932Z,100226.92
